sensor_id;sensor_type;location;lat;lon;timestamp;P1;durP1;ratioP1;P2;durP2;ratioP2
15061;SDS011;7630;50.306;8.566;2022-11-20T00:03:48;35.33;;;27.33;;
15061;SDS011;7630;50.306;8.566;2022-11-20T00:07:51;31.30;;;25.60;;
15061;SDS011;7630;50.306;8.566;2022-11-20T00:11:52;29.10;;;23.97;;
15061;SDS011;7630;50.306;8.566;2022-11-20T00:15:57;33.50;;;25.60;;
15061;SDS011;7630;50.306;8.566;2022-11-20T00:19:59;44.20;;;37.17;;
15061;SDS011;7630;50.306;8.566;2022-11-20T00:24:01;41.07;;;32.03;;
15061;SDS011;7630;50.306;8.566;2022-11-20T00:28:03;37.87;;;30.87;;
15061;SDS011;7630;50.306;8.566;2022-11-20T00:32:05;40.90;;;32.47;;
15061;SDS011;7630;50.306;8.566;2022-11-20T00:36:07;37.03;;;30.40;;
15061;SDS011;7630;50.306;8.566;2022-11-20T00:40:10;41.10;;;30.17;;
15061;SDS011;7630;50.306;8.566;2022-11-20T00:44:12;46.23;;;33.33;;
15061;SDS011;7630;50.306;8.566;2022-11-20T00:48:13;40.87;;;31.57;;
15061;SDS011;7630;50.306;8.566;2022-11-20T00:52:15;45.23;;;34.50;;
15061;SDS011;7630;50.306;8.566;2022-11-20T00:56:17;47.57;;;34.40;;
15061;SDS011;7630;50.306;8.566;2022-11-20T01:00:19;46.80;;;35.80;;
15061;SDS011;7630;50.306;8.566;2022-11-20T01:04:20;55.60;;;42.30;;
15061;SDS011;7630;50.306;8.566;2022-11-20T01:08:21;51.30;;;37.10;;
15061;SDS011;7630;50.306;8.566;2022-11-20T01:12:22;48.33;;;37.53;;
15061;SDS011;7630;50.306;8.566;2022-11-20T01:16:25;50.33;;;36.10;;
15061;SDS011;7630;50.306;8.566;2022-11-20T01:20:28;46.43;;;34.60;;
15061;SDS011;7630;50.306;8.566;2022-11-20T01:24:29;51.47;;;38.57;;
15061;SDS011;7630;50.306;8.566;2022-11-20T01:28:31;50.77;;;35.67;;
15061;SDS011;7630;50.306;8.566;2022-11-20T01:32:32;49.90;;;37.30;;
15061;SDS011;7630;50.306;8.566;2022-11-20T01:36:34;48.97;;;35.30;;
15061;SDS011;7630;50.306;8.566;2022-11-20T01:40:37;47.80;;;36.30;;
15061;SDS011;7630;50.306;8.566;2022-11-20T01:44:52;47.70;;;35.17;;
15061;SDS011;7630;50.306;8.566;2022-11-20T01:49:58;49.53;;;37.70;;
15061;SDS011;7630;50.306;8.566;2022-11-20T01:53:27;51.53;;;36.93;;
15061;SDS011;7630;50.306;8.566;2022-11-20T01:57:26;50.63;;;38.90;;
15061;SDS011;7630;50.306;8.566;2022-11-20T02:01:30;54.93;;;37.87;;
15061;SDS011;7630;50.306;8.566;2022-11-20T02:05:36;51.87;;;37.73;;
15061;SDS011;7630;50.306;8.566;2022-11-20T02:09:42;46.47;;;35.17;;
15061;SDS011;7630;50.306;8.566;2022-11-20T02:13:44;40.40;;;31.67;;
15061;SDS011;7630;50.306;8.566;2022-11-20T02:17:46;42.60;;;30.77;;
15061;SDS011;7630;50.306;8.566;2022-11-20T02:26:01;39.07;;;30.40;;
15061;SDS011;7630;50.306;8.566;2022-11-20T02:30:05;39.97;;;31.23;;
15061;SDS011;7630;50.306;8.566;2022-11-20T02:34:11;38.60;;;31.10;;
15061;SDS011;7630;50.306;8.566;2022-11-20T02:38:12;41.63;;;31.03;;
15061;SDS011;7630;50.306;8.566;2022-11-20T02:42:14;36.80;;;29.90;;
15061;SDS011;7630;50.306;8.566;2022-11-20T02:46:16;43.10;;;33.17;;
15061;SDS011;7630;50.306;8.566;2022-11-20T02:50:17;40.05;;;35.85;;
15061;SDS011;7630;50.306;8.566;2022-11-20T02:54:22;36.80;;;30.87;;
15061;SDS011;7630;50.306;8.566;2022-11-20T02:58:34;34.07;;;27.13;;
15061;SDS011;7630;50.306;8.566;2022-11-20T03:02:35;36.43;;;29.87;;
15061;SDS011;7630;50.306;8.566;2022-11-20T03:06:57;35.70;;;28.03;;
15061;SDS011;7630;50.306;8.566;2022-11-20T03:11:02;32.20;;;28.57;;
15061;SDS011;7630;50.306;8.566;2022-11-20T03:15:06;39.67;;;28.90;;
15061;SDS011;7630;50.306;8.566;2022-11-20T03:19:07;37.60;;;29.27;;
15061;SDS011;7630;50.306;8.566;2022-11-20T03:23:08;39.87;;;33.47;;
15061;SDS011;7630;50.306;8.566;2022-11-20T03:27:09;39.73;;;31.43;;
15061;SDS011;7630;50.306;8.566;2022-11-20T03:31:11;43.53;;;32.10;;
15061;SDS011;7630;50.306;8.566;2022-11-20T03:35:14;45.47;;;33.07;;
15061;SDS011;7630;50.306;8.566;2022-11-20T03:39:15;45.13;;;36.27;;
15061;SDS011;7630;50.306;8.566;2022-11-20T03:43:16;36.73;;;31.27;;
15061;SDS011;7630;50.306;8.566;2022-11-20T03:47:37;37.20;;;30.13;;
15061;SDS011;7630;50.306;8.566;2022-11-20T03:51:58;39.03;;;29.77;;
15061;SDS011;7630;50.306;8.566;2022-11-20T03:55:59;40.60;;;31.87;;
15061;SDS011;7630;50.306;8.566;2022-11-20T04:00:00;38.20;;;30.47;;
15061;SDS011;7630;50.306;8.566;2022-11-20T04:04:01;40.50;;;32.10;;
15061;SDS011;7630;50.306;8.566;2022-11-20T04:08:02;43.03;;;31.00;;
15061;SDS011;7630;50.306;8.566;2022-11-20T04:12:04;40.17;;;31.77;;
15061;SDS011;7630;50.306;8.566;2022-11-20T04:16:07;46.23;;;33.93;;
15061;SDS011;7630;50.306;8.566;2022-11-20T04:20:09;41.63;;;33.53;;
15061;SDS011;7630;50.306;8.566;2022-11-20T04:24:11;46.97;;;34.43;;
15061;SDS011;7630;50.306;8.566;2022-11-20T04:28:12;41.73;;;31.50;;
15061;SDS011;7630;50.306;8.566;2022-11-20T04:32:13;41.33;;;31.23;;
15061;SDS011;7630;50.306;8.566;2022-11-20T04:36:15;46.27;;;34.33;;
15061;SDS011;7630;50.306;8.566;2022-11-20T04:40:17;43.47;;;33.37;;
15061;SDS011;7630;50.306;8.566;2022-11-20T04:44:18;41.60;;;31.37;;
15061;SDS011;7630;50.306;8.566;2022-11-20T04:48:20;43.37;;;33.20;;
15061;SDS011;7630;50.306;8.566;2022-11-20T04:52:21;44.53;;;32.03;;
15061;SDS011;7630;50.306;8.566;2022-11-20T04:56:22;43.40;;;32.90;;
15061;SDS011;7630;50.306;8.566;2022-11-20T05:00:23;43.57;;;32.83;;
15061;SDS011;7630;50.306;8.566;2022-11-20T05:04:25;44.00;;;34.47;;
15061;SDS011;7630;50.306;8.566;2022-11-20T05:08:26;47.40;;;33.37;;
15061;SDS011;7630;50.306;8.566;2022-11-20T05:12:27;49.83;;;35.93;;
15061;SDS011;7630;50.306;8.566;2022-11-20T05:16:29;45.10;;;35.47;;
15061;SDS011;7630;50.306;8.566;2022-11-20T05:20:30;44.50;;;34.80;;
15061;SDS011;7630;50.306;8.566;2022-11-20T05:24:31;46.37;;;41.37;;
15061;SDS011;7630;50.306;8.566;2022-11-20T05:28:32;42.93;;;33.67;;
15061;SDS011;7630;50.306;8.566;2022-11-20T05:32:34;41.97;;;32.37;;
15061;SDS011;7630;50.306;8.566;2022-11-20T05:36:35;45.63;;;32.17;;
15061;SDS011;7630;50.306;8.566;2022-11-20T05:40:36;44.33;;;32.93;;
15061;SDS011;7630;50.306;8.566;2022-11-20T05:44:37;45.23;;;33.47;;
15061;SDS011;7630;50.306;8.566;2022-11-20T05:48:38;44.57;;;33.87;;
15061;SDS011;7630;50.306;8.566;2022-11-20T05:52:40;48.90;;;35.60;;
15061;SDS011;7630;50.306;8.566;2022-11-20T05:56:42;55.23;;;34.47;;
15061;SDS011;7630;50.306;8.566;2022-11-20T06:00:43;52.67;;;37.00;;
15061;SDS011;7630;50.306;8.566;2022-11-20T06:04:44;59.13;;;39.27;;
15061;SDS011;7630;50.306;8.566;2022-11-20T06:08:45;59.00;;;37.53;;
15061;SDS011;7630;50.306;8.566;2022-11-20T06:12:46;56.00;;;37.37;;
15061;SDS011;7630;50.306;8.566;2022-11-20T06:16:48;57.80;;;38.53;;
15061;SDS011;7630;50.306;8.566;2022-11-20T06:20:49;59.67;;;36.97;;
15061;SDS011;7630;50.306;8.566;2022-11-20T06:24:50;62.40;;;41.07;;
15061;SDS011;7630;50.306;8.566;2022-11-20T06:28:51;63.70;;;41.63;;
15061;SDS011;7630;50.306;8.566;2022-11-20T06:32:53;67.87;;;41.70;;
15061;SDS011;7630;50.306;8.566;2022-11-20T06:36:54;68.17;;;42.70;;
15061;SDS011;7630;50.306;8.566;2022-11-20T06:40:55;62.93;;;39.30;;
15061;SDS011;7630;50.306;8.566;2022-11-20T06:44:56;63.03;;;39.20;;
15061;SDS011;7630;50.306;8.566;2022-11-20T06:48:57;66.97;;;40.97;;
15061;SDS011;7630;50.306;8.566;2022-11-20T06:53:02;69.77;;;41.17;;
15061;SDS011;7630;50.306;8.566;2022-11-20T06:57:04;77.97;;;41.17;;
15061;SDS011;7630;50.306;8.566;2022-11-20T07:01:06;57.57;;;38.63;;
15061;SDS011;7630;50.306;8.566;2022-11-20T07:05:09;63.77;;;39.80;;
15061;SDS011;7630;50.306;8.566;2022-11-20T07:09:10;65.23;;;40.07;;
15061;SDS011;7630;50.306;8.566;2022-11-20T07:13:13;61.87;;;37.30;;
15061;SDS011;7630;50.306;8.566;2022-11-20T07:17:14;67.93;;;39.97;;
15061;SDS011;7630;50.306;8.566;2022-11-20T07:21:16;62.47;;;41.27;;
15061;SDS011;7630;50.306;8.566;2022-11-20T07:25:17;70.47;;;44.77;;
15061;SDS011;7630;50.306;8.566;2022-11-20T07:29:18;76.03;;;49.97;;
15061;SDS011;7630;50.306;8.566;2022-11-20T07:33:19;68.37;;;46.00;;
15061;SDS011;7630;50.306;8.566;2022-11-20T07:37:20;63.83;;;41.77;;
15061;SDS011;7630;50.306;8.566;2022-11-20T07:41:22;58.27;;;38.10;;
15061;SDS011;7630;50.306;8.566;2022-11-20T07:45:23;62.67;;;38.20;;
15061;SDS011;7630;50.306;8.566;2022-11-20T07:49:24;61.60;;;37.67;;
15061;SDS011;7630;50.306;8.566;2022-11-20T07:53:26;58.47;;;36.33;;
15061;SDS011;7630;50.306;8.566;2022-11-20T07:57:27;62.03;;;36.80;;
15061;SDS011;7630;50.306;8.566;2022-11-20T08:01:29;61.37;;;36.33;;
15061;SDS011;7630;50.306;8.566;2022-11-20T08:05:30;53.07;;;34.07;;
15061;SDS011;7630;50.306;8.566;2022-11-20T08:09:31;61.07;;;38.33;;
15061;SDS011;7630;50.306;8.566;2022-11-20T08:13:34;63.20;;;38.00;;
15061;SDS011;7630;50.306;8.566;2022-11-20T08:18:04;58.90;;;38.27;;
15061;SDS011;7630;50.306;8.566;2022-11-20T08:22:09;67.50;;;39.27;;
15061;SDS011;7630;50.306;8.566;2022-11-20T08:26:10;59.33;;;37.33;;
15061;SDS011;7630;50.306;8.566;2022-11-20T08:30:11;56.73;;;36.90;;
15061;SDS011;7630;50.306;8.566;2022-11-20T08:34:13;51.80;;;33.87;;
15061;SDS011;7630;50.306;8.566;2022-11-20T08:38:16;50.20;;;33.50;;
15061;SDS011;7630;50.306;8.566;2022-11-20T08:42:17;47.37;;;32.57;;
15061;SDS011;7630;50.306;8.566;2022-11-20T08:46:18;46.63;;;33.67;;
15061;SDS011;7630;50.306;8.566;2022-11-20T08:50:20;54.30;;;36.43;;
15061;SDS011;7630;50.306;8.566;2022-11-20T08:54:21;53.47;;;34.30;;
15061;SDS011;7630;50.306;8.566;2022-11-20T08:58:23;44.17;;;31.40;;
15061;SDS011;7630;50.306;8.566;2022-11-20T09:02:24;43.47;;;32.20;;
15061;SDS011;7630;50.306;8.566;2022-11-20T09:06:28;38.70;;;27.00;;
15061;SDS011;7630;50.306;8.566;2022-11-20T09:10:29;40.07;;;29.20;;
15061;SDS011;7630;50.306;8.566;2022-11-20T09:14:30;34.93;;;25.90;;
15061;SDS011;7630;50.306;8.566;2022-11-20T09:18:31;38.90;;;27.47;;
15061;SDS011;7630;50.306;8.566;2022-11-20T09:22:33;30.83;;;24.27;;
15061;SDS011;7630;50.306;8.566;2022-11-20T09:26:34;24.80;;;20.97;;
15061;SDS011;7630;50.306;8.566;2022-11-20T09:30:35;23.17;;;17.83;;
15061;SDS011;7630;50.306;8.566;2022-11-20T09:34:36;30.33;;;21.93;;
15061;SDS011;7630;50.306;8.566;2022-11-20T09:38:37;40.10;;;30.70;;
15061;SDS011;7630;50.306;8.566;2022-11-20T09:42:47;39.00;;;28.30;;
15061;SDS011;7630;50.306;8.566;2022-11-20T09:51:01;32.93;;;26.73;;
15061;SDS011;7630;50.306;8.566;2022-11-20T09:55:10;30.63;;;24.50;;
15061;SDS011;7630;50.306;8.566;2022-11-20T09:59:18;27.67;;;23.07;;
15061;SDS011;7630;50.306;8.566;2022-11-20T10:07:51;12.53;;;11.20;;
15061;SDS011;7630;50.306;8.566;2022-11-20T10:25:02;11.43;;;10.33;;
15061;SDS011;7630;50.306;8.566;2022-11-20T10:29:18;13.23;;;11.80;;
15061;SDS011;7630;50.306;8.566;2022-11-20T10:33:22;10.00;;;9.00;;
15061;SDS011;7630;50.306;8.566;2022-11-20T10:37:29;10.10;;;9.03;;
15061;SDS011;7630;50.306;8.566;2022-11-20T10:41:35;11.00;;;10.00;;
15061;SDS011;7630;50.306;8.566;2022-11-20T10:45:43;13.30;;;11.43;;
15061;SDS011;7630;50.306;8.566;2022-11-20T10:49:53;14.30;;;12.83;;
15061;SDS011;7630;50.306;8.566;2022-11-20T10:53:57;15.10;;;13.50;;
15061;SDS011;7630;50.306;8.566;2022-11-20T10:58:09;17.17;;;14.03;;
15061;SDS011;7630;50.306;8.566;2022-11-20T11:02:18;13.47;;;12.17;;
15061;SDS011;7630;50.306;8.566;2022-11-20T11:10:36;16.23;;;14.67;;
15061;SDS011;7630;50.306;8.566;2022-11-20T11:14:50;14.67;;;13.17;;
15061;SDS011;7630;50.306;8.566;2022-11-20T11:19:04;14.20;;;12.73;;
15061;SDS011;7630;50.306;8.566;2022-11-20T11:23:10;15.50;;;13.87;;
15061;SDS011;7630;50.306;8.566;2022-11-20T11:27:12;17.80;;;15.67;;
15061;SDS011;7630;50.306;8.566;2022-11-20T11:31:25;16.63;;;14.97;;
15061;SDS011;7630;50.306;8.566;2022-11-20T11:35:38;15.53;;;13.83;;
15061;SDS011;7630;50.306;8.566;2022-11-20T11:39:39;16.90;;;15.10;;
15061;SDS011;7630;50.306;8.566;2022-11-20T11:43:49;16.57;;;15.07;;
15061;SDS011;7630;50.306;8.566;2022-11-20T11:48:18;16.30;;;14.50;;
15061;SDS011;7630;50.306;8.566;2022-11-20T11:52:20;17.37;;;15.47;;
15061;SDS011;7630;50.306;8.566;2022-11-20T11:56:24;19.77;;;17.23;;
15061;SDS011;7630;50.306;8.566;2022-11-20T12:00:25;15.30;;;13.70;;
15061;SDS011;7630;50.306;8.566;2022-11-20T12:04:36;15.33;;;13.77;;
15061;SDS011;7630;50.306;8.566;2022-11-20T12:12:55;14.50;;;13.23;;
15061;SDS011;7630;50.306;8.566;2022-11-20T12:17:13;15.33;;;13.70;;
15061;SDS011;7630;50.306;8.566;2022-11-20T12:21:19;14.10;;;12.70;;
15061;SDS011;7630;50.306;8.566;2022-11-20T12:25:24;15.03;;;13.40;;
15061;SDS011;7630;50.306;8.566;2022-11-20T12:29:32;18.53;;;15.47;;
15061;SDS011;7630;50.306;8.566;2022-11-20T13:07:29;48.90;;;35.17;;
15061;SDS011;7630;50.306;8.566;2022-11-20T13:11:38;49.27;;;36.37;;
15061;SDS011;7630;50.306;8.566;2022-11-20T13:20:05;55.50;;;38.27;;
15061;SDS011;7630;50.306;8.566;2022-11-20T13:28:29;60.27;;;37.97;;
15061;SDS011;7630;50.306;8.566;2022-11-20T13:32:28;62.37;;;41.63;;
15061;SDS011;7630;50.306;8.566;2022-11-20T13:36:32;57.80;;;35.87;;
15061;SDS011;7630;50.306;8.566;2022-11-20T13:40:36;56.00;;;37.50;;
15061;SDS011;7630;50.306;8.566;2022-11-20T13:44:41;61.33;;;36.77;;
15061;SDS011;7630;50.306;8.566;2022-11-20T13:48:47;53.07;;;34.90;;
15061;SDS011;7630;50.306;8.566;2022-11-20T14:01:31;54.07;;;37.10;;
15061;SDS011;7630;50.306;8.566;2022-11-20T14:05:37;55.23;;;35.00;;
15061;SDS011;7630;50.306;8.566;2022-11-20T14:09:49;54.40;;;35.40;;
15061;SDS011;7630;50.306;8.566;2022-11-20T14:18:21;42.83;;;33.43;;
15061;SDS011;7630;50.306;8.566;2022-11-20T14:22:25;48.70;;;31.90;;
15061;SDS011;7630;50.306;8.566;2022-11-20T14:26:27;43.37;;;31.63;;
15061;SDS011;7630;50.306;8.566;2022-11-20T14:30:42;46.80;;;32.53;;
15061;SDS011;7630;50.306;8.566;2022-11-20T14:34:43;57.57;;;37.10;;
15061;SDS011;7630;50.306;8.566;2022-11-20T14:38:46;80.80;;;40.47;;
15061;SDS011;7630;50.306;8.566;2022-11-20T14:42:47;80.80;;;41.93;;
15061;SDS011;7630;50.306;8.566;2022-11-20T14:46:49;106.63;;;44.23;;
15061;SDS011;7630;50.306;8.566;2022-11-20T14:50:52;80.53;;;39.63;;
15061;SDS011;7630;50.306;8.566;2022-11-20T14:54:53;196.63;;;46.03;;
15061;SDS011;7630;50.306;8.566;2022-11-20T14:58:57;236.03;;;51.17;;
15061;SDS011;7630;50.306;8.566;2022-11-20T15:02:58;195.80;;;48.17;;
15061;SDS011;7630;50.306;8.566;2022-11-20T15:07:00;119.60;;;47.97;;
15061;SDS011;7630;50.306;8.566;2022-11-20T15:11:01;136.53;;;51.33;;
15061;SDS011;7630;50.306;8.566;2022-11-20T15:15:03;153.63;;;53.93;;
15061;SDS011;7630;50.306;8.566;2022-11-20T15:19:09;199.33;;;52.13;;
15061;SDS011;7630;50.306;8.566;2022-11-20T15:23:14;150.90;;;48.17;;
15061;SDS011;7630;50.306;8.566;2022-11-20T15:27:18;177.03;;;50.83;;
15061;SDS011;7630;50.306;8.566;2022-11-20T15:31:23;178.73;;;51.27;;
15061;SDS011;7630;50.306;8.566;2022-11-20T15:35:24;224.33;;;53.03;;
15061;SDS011;7630;50.306;8.566;2022-11-20T15:39:26;219.63;;;57.10;;
15061;SDS011;7630;50.306;8.566;2022-11-20T15:43:28;147.53;;;55.43;;
15061;SDS011;7630;50.306;8.566;2022-11-20T15:47:30;186.67;;;56.58;;
15061;SDS011;7630;50.306;8.566;2022-11-20T15:51:34;175.70;;;57.57;;
15061;SDS011;7630;50.306;8.566;2022-11-20T15:55:37;257.93;;;121.33;;
15061;SDS011;7630;50.306;8.566;2022-11-20T15:59:38;185.50;;;65.40;;
15061;SDS011;7630;50.306;8.566;2022-11-20T16:03:41;199.90;;;60.00;;
15061;SDS011;7630;50.306;8.566;2022-11-20T16:07:42;158.17;;;65.67;;
15061;SDS011;7630;50.306;8.566;2022-11-20T16:11:44;152.03;;;57.13;;
15061;SDS011;7630;50.306;8.566;2022-11-20T16:15:52;110.17;;;61.73;;
15061;SDS011;7630;50.306;8.566;2022-11-20T16:19:56;101.27;;;59.33;;
15061;SDS011;7630;50.306;8.566;2022-11-20T16:23:58;122.40;;;67.27;;
15061;SDS011;7630;50.306;8.566;2022-11-20T16:28:00;113.75;;;72.22;;
15061;SDS011;7630;50.306;8.566;2022-11-20T16:32:02;135.30;;;62.80;;
15061;SDS011;7630;50.306;8.566;2022-11-20T16:36:10;95.90;;;56.57;;
15061;SDS011;7630;50.306;8.566;2022-11-20T16:40:13;81.37;;;60.65;;
15061;SDS011;7630;50.306;8.566;2022-11-20T16:44:14;90.93;;;53.07;;
15061;SDS011;7630;50.306;8.566;2022-11-20T16:48:15;87.80;;;53.83;;
15061;SDS011;7630;50.306;8.566;2022-11-20T16:52:17;91.43;;;52.47;;
15061;SDS011;7630;50.306;8.566;2022-11-20T16:56:19;72.30;;;47.13;;
15061;SDS011;7630;50.306;8.566;2022-11-20T17:00:21;82.30;;;51.27;;
15061;SDS011;7630;50.306;8.566;2022-11-20T17:04:22;12.93;;;10.87;;
15061;SDS011;7630;50.306;8.566;2022-11-20T17:08:26;9.60;;;8.13;;
15061;SDS011;7630;50.306;8.566;2022-11-20T17:12:29;7.50;;;6.70;;
15061;SDS011;7630;50.306;8.566;2022-11-20T17:16:31;7.20;;;6.50;;
15061;SDS011;7630;50.306;8.566;2022-11-20T17:20:33;8.03;;;7.33;;
15061;SDS011;7630;50.306;8.566;2022-11-20T17:24:34;7.20;;;6.60;;
15061;SDS011;7630;50.306;8.566;2022-11-20T17:28:36;7.17;;;5.87;;
15061;SDS011;7630;50.306;8.566;2022-11-20T17:32:38;6.00;;;5.50;;
15061;SDS011;7630;50.306;8.566;2022-11-20T17:36:42;7.27;;;6.67;;
15061;SDS011;7630;50.306;8.566;2022-11-20T17:40:46;9.97;;;9.07;;
15061;SDS011;7630;50.306;8.566;2022-11-20T17:44:47;10.53;;;9.43;;
15061;SDS011;7630;50.306;8.566;2022-11-20T17:48:48;12.83;;;10.47;;
15061;SDS011;7630;50.306;8.566;2022-11-20T17:52:50;19.10;;;13.83;;
15061;SDS011;7630;50.306;8.566;2022-11-20T17:56:51;19.20;;;17.30;;
15061;SDS011;7630;50.306;8.566;2022-11-20T18:01:14;20.80;;;18.60;;
15061;SDS011;7630;50.306;8.566;2022-11-20T18:05:15;27.17;;;22.17;;
15061;SDS011;7630;50.306;8.566;2022-11-20T18:09:17;24.07;;;21.57;;
15061;SDS011;7630;50.306;8.566;2022-11-20T18:13:18;24.33;;;19.53;;
15061;SDS011;7630;50.306;8.566;2022-11-20T18:17:19;24.67;;;22.10;;
15061;SDS011;7630;50.306;8.566;2022-11-20T18:21:21;25.47;;;21.77;;
15061;SDS011;7630;50.306;8.566;2022-11-20T18:25:24;25.30;;;20.37;;
15061;SDS011;7630;50.306;8.566;2022-11-20T18:29:25;26.07;;;19.13;;
15061;SDS011;7630;50.306;8.566;2022-11-20T18:33:28;26.87;;;21.10;;
15061;SDS011;7630;50.306;8.566;2022-11-20T18:37:30;24.60;;;20.83;;
15061;SDS011;7630;50.306;8.566;2022-11-20T18:41:31;23.17;;;20.03;;
15061;SDS011;7630;50.306;8.566;2022-11-20T18:45:59;24.57;;;20.10;;
15061;SDS011;7630;50.306;8.566;2022-11-20T18:49:57;25.10;;;20.83;;
15061;SDS011;7630;50.306;8.566;2022-11-20T18:54:01;21.33;;;17.80;;
15061;SDS011;7630;50.306;8.566;2022-11-20T18:58:03;19.03;;;14.70;;
15061;SDS011;7630;50.306;8.566;2022-11-20T19:02:04;16.27;;;14.57;;
15061;SDS011;7630;50.306;8.566;2022-11-20T19:06:11;18.77;;;16.77;;
15061;SDS011;7630;50.306;8.566;2022-11-20T19:10:16;17.73;;;16.02;;
15061;SDS011;7630;50.306;8.566;2022-11-20T19:14:20;11.70;;;10.57;;
15061;SDS011;7630;50.306;8.566;2022-11-20T19:18:21;12.93;;;10.67;;
15061;SDS011;7630;50.306;8.566;2022-11-20T19:22:22;6.63;;;6.13;;
15061;SDS011;7630;50.306;8.566;2022-11-20T19:26:24;5.13;;;4.63;;
15061;SDS011;7630;50.306;8.566;2022-11-20T19:30:25;5.30;;;4.90;;
15061;SDS011;7630;50.306;8.566;2022-11-20T19:34:27;4.20;;;3.80;;
15061;SDS011;7630;50.306;8.566;2022-11-20T19:38:28;7.90;;;4.37;;
15061;SDS011;7630;50.306;8.566;2022-11-20T19:42:29;2.73;;;2.57;;
15061;SDS011;7630;50.306;8.566;2022-11-20T19:46:32;2.90;;;2.60;;
15061;SDS011;7630;50.306;8.566;2022-11-20T19:50:34;2.17;;;2.07;;
15061;SDS011;7630;50.306;8.566;2022-11-20T19:54:35;2.40;;;2.20;;
15061;SDS011;7630;50.306;8.566;2022-11-20T19:58:37;2.87;;;2.67;;
15061;SDS011;7630;50.306;8.566;2022-11-20T20:02:39;3.03;;;2.83;;
15061;SDS011;7630;50.306;8.566;2022-11-20T20:06:41;3.07;;;2.83;;
15061;SDS011;7630;50.306;8.566;2022-11-20T20:10:43;3.13;;;2.83;;
15061;SDS011;7630;50.306;8.566;2022-11-20T20:14:46;3.00;;;2.70;;
15061;SDS011;7630;50.306;8.566;2022-11-20T20:18:51;3.33;;;3.03;;
15061;SDS011;7630;50.306;8.566;2022-11-20T20:22:56;2.80;;;2.43;;
15061;SDS011;7630;50.306;8.566;2022-11-20T20:26:57;2.73;;;2.43;;
15061;SDS011;7630;50.306;8.566;2022-11-20T20:31:09;4.57;;;2.90;;
15061;SDS011;7630;50.306;8.566;2022-11-20T20:35:12;4.80;;;3.07;;
15061;SDS011;7630;50.306;8.566;2022-11-20T20:39:17;3.07;;;2.87;;
15061;SDS011;7630;50.306;8.566;2022-11-20T20:43:19;3.30;;;3.10;;
15061;SDS011;7630;50.306;8.566;2022-11-20T20:47:20;4.70;;;2.80;;
15061;SDS011;7630;50.306;8.566;2022-11-20T20:51:22;2.77;;;2.53;;
15061;SDS011;7630;50.306;8.566;2022-11-20T20:55:23;2.77;;;2.50;;
15061;SDS011;7630;50.306;8.566;2022-11-20T20:59:25;4.20;;;2.93;;
15061;SDS011;7630;50.306;8.566;2022-11-20T21:03:27;2.27;;;2.13;;
15061;SDS011;7630;50.306;8.566;2022-11-20T21:07:30;4.00;;;2.65;;
15061;SDS011;7630;50.306;8.566;2022-11-20T21:11:31;4.83;;;2.40;;
15061;SDS011;7630;50.306;8.566;2022-11-20T21:15:32;5.17;;;2.73;;
15061;SDS011;7630;50.306;8.566;2022-11-20T21:19:33;3.90;;;2.60;;
15061;SDS011;7630;50.306;8.566;2022-11-20T21:23:34;2.87;;;2.40;;
15061;SDS011;7630;50.306;8.566;2022-11-20T21:27:36;2.53;;;2.30;;
15061;SDS011;7630;50.306;8.566;2022-11-20T21:31:37;4.90;;;2.70;;
15061;SDS011;7630;50.306;8.566;2022-11-20T21:35:39;3.20;;;2.83;;
15061;SDS011;7630;50.306;8.566;2022-11-20T21:39:41;3.67;;;2.53;;
15061;SDS011;7630;50.306;8.566;2022-11-20T21:43:43;2.63;;;2.43;;
15061;SDS011;7630;50.306;8.566;2022-11-20T21:47:47;6.03;;;2.90;;
15061;SDS011;7630;50.306;8.566;2022-11-20T21:51:51;7.53;;;3.27;;
15061;SDS011;7630;50.306;8.566;2022-11-20T21:55:53;4.13;;;2.53;;
15061;SDS011;7630;50.306;8.566;2022-11-20T21:59:55;3.40;;;3.10;;
15061;SDS011;7630;50.306;8.566;2022-11-20T22:03:57;3.17;;;2.90;;
15061;SDS011;7630;50.306;8.566;2022-11-20T22:08:00;7.53;;;3.13;;
15061;SDS011;7630;50.306;8.566;2022-11-20T22:12:01;7.73;;;2.83;;
15061;SDS011;7630;50.306;8.566;2022-11-20T22:16:03;7.40;;;4.37;;
15061;SDS011;7630;50.306;8.566;2022-11-20T22:20:04;3.27;;;3.07;;
15061;SDS011;7630;50.306;8.566;2022-11-20T22:24:07;6.77;;;3.33;;
15061;SDS011;7630;50.306;8.566;2022-11-20T22:28:13;10.63;;;3.10;;
15061;SDS011;7630;50.306;8.566;2022-11-20T22:32:14;9.90;;;2.90;;
15061;SDS011;7630;50.306;8.566;2022-11-20T22:36:25;9.20;;;3.23;;
15061;SDS011;7630;50.306;8.566;2022-11-20T22:40:23;6.13;;;3.30;;
15061;SDS011;7630;50.306;8.566;2022-11-20T22:44:29;6.00;;;3.07;;
15061;SDS011;7630;50.306;8.566;2022-11-20T22:48:31;8.67;;;3.10;;
15061;SDS011;7630;50.306;8.566;2022-11-20T22:52:33;6.83;;;2.87;;
15061;SDS011;7630;50.306;8.566;2022-11-20T22:56:35;7.23;;;2.57;;
15061;SDS011;7630;50.306;8.566;2022-11-20T23:00:36;7.17;;;2.77;;
15061;SDS011;7630;50.306;8.566;2022-11-20T23:04:37;8.47;;;3.10;;
15061;SDS011;7630;50.306;8.566;2022-11-20T23:08:38;11.37;;;4.03;;
15061;SDS011;7630;50.306;8.566;2022-11-20T23:12:41;5.93;;;2.87;;
15061;SDS011;7630;50.306;8.566;2022-11-20T23:16:42;4.60;;;2.57;;
15061;SDS011;7630;50.306;8.566;2022-11-20T23:20:43;12.80;;;2.80;;
15061;SDS011;7630;50.306;8.566;2022-11-20T23:24:44;6.47;;;2.20;;
15061;SDS011;7630;50.306;8.566;2022-11-20T23:28:45;10.13;;;2.70;;
15061;SDS011;7630;50.306;8.566;2022-11-20T23:32:48;6.03;;;2.50;;
15061;SDS011;7630;50.306;8.566;2022-11-20T23:36:49;8.00;;;2.90;;
15061;SDS011;7630;50.306;8.566;2022-11-20T23:40:51;6.23;;;2.23;;
15061;SDS011;7630;50.306;8.566;2022-11-20T23:44:52;4.83;;;1.97;;
15061;SDS011;7630;50.306;8.566;2022-11-20T23:49:14;5.43;;;2.20;;
15061;SDS011;7630;50.306;8.566;2022-11-20T23:53:16;6.63;;;2.00;;
15061;SDS011;7630;50.306;8.566;2022-11-20T23:57:17;5.67;;;2.10;;
